ENANENTC

Guest
Details From ENAN - ANDOYA
To ENTC - Tromso Langnes
Flight Number -
Tags generated
Created
Modified
Stats Distance 63 nm / 117 km
Max Altitude 100 ft / 30 m
Waypoints 3
Social Downloads 3
Likes 0
Share VATSIM

Download

Looking for another format? Having issues loading an existing format? Contact us
Advertisement - Login to hide

Notes

Basic altitude profile: - Ascent Rate: 2500ft/min - Ascent Speed: 250kts - Cruise Altitude: 35000ft - Cruise Speed: 420kts - Descent Rate: 1500ft/min - Descent Speed: 250kts Options: - Use NATs: yes - Use PACOTS: yes - Use low airways: yes - Use high airways: no

Route

ENAN AND ENTC

ID Type Via Altitude Latitude Longitude Leg Dist Tot Dist Heading (true) Name
O ENAN APT - 0 ft / 0 m 69.29335˚ 16.13775˚ - 0 nm - ANDOYA
AND VOR - 100 ft / 30 m 69.28783˚ 16.14138˚ 0 nm 0 nm 167° / 167° ANDOYA VOR-DME
O ENTC APT - 0 ft / 0 m 69.68287˚ 18.91936˚ 63 nm 63 nm 67° / 69° Tromso Langnes

Altitude Profile

Advertisement - Login to hide

ENAN

Details ICAO ENAN (ANX)
Name ANDOYA
Region Norway
Timezone Europe/Oslo (UTC+1.0)
Stats Elevation 43 ft / 13 m (AMSL)
Location 69.293353° 16.137750°
Runways 2
Magnetic Variation 7.091° E

METAR

ENAN 141850Z 22002KT 9999 FEW040 M05/M07 Q0988

Decode

TAF

TAF ENAN 141700Z 1418/1518 20008KT 9999 FEW006 SCT030 TEMPO 1418/1424 2000 SHSN VV008

Decode

Departure Runways

ID Width Length Bearing (true) Bearing (mag) Surface Threshold Offset Overrun Length
03 148 ft / 45 m 5,468 ft / 1,667 m 31.41° 24.32° Asphalt 0 ft / 0 m 0 ft / 0 m
14 148 ft / 45 m 9,830 ft / 2,996 m 149.75° 142.66° Asphalt 823 ft / 251 m 0 ft / 0 m
21 148 ft / 45 m 5,468 ft / 1,667 m 211.43° 204.34° Asphalt 0 ft / 0 m 0 ft / 0 m
32 148 ft / 45 m 9,830 ft / 2,996 m 329.78° 322.69° Asphalt 886 ft / 270 m 0 ft / 0 m

ENTC

Details ICAO ENTC (TOS)
Name Tromso Langnes
Region Norway
Timezone Europe/Oslo (UTC+1.0)
Stats Elevation 31 ft / 9 m (AMSL)
Location 69.682866° 18.919363°
Runways 1
Magnetic Variation 8.798° E

METAR

ENTC 141850Z 19009KT 9999 FEW025 BKN033 00/M03 Q0989 NOSIG RMK WIND 2600FT 20010KT

Decode

TAF

TAF ENTC 141700Z 1418/1518 18009KT 9999 FEW010 SCT025

Decode

Destination Runways

ID Width Length Bearing (true) Bearing (mag) Surface Threshold Offset Overrun Length
01 141 ft / 43 m 7,740 ft / 2,359 m 12.19° 3.39° Asphalt 0 ft / 0 m 289 ft / 88 m
19 141 ft / 43 m 7,740 ft / 2,359 m 192.21° 183.41° Asphalt 1,227 ft / 374 m 482 ft / 147 m

Approach Navaids

Runway Type Ident Frequency Range Bearing (true) Bearing (mag) Slope Elevation
01 Localiser TC 110.90 MHz 18 nm / 33 km 12.08° 3.29° - 56 ft / 17 m (AMSL)
01 Glidescope TC 110.90 MHz 10 nm / 19 km 12.20° 3.40° 4.00° 31 ft / 9 m (AMSL)
01 DME TC 110.90 MHz 18 nm / 33 km - - - 56 ft / 17 m (AMSL)
19 Localiser TR 109.90 MHz 18 nm / 33 km 193.28° 184.48° - 36 ft / 11 m (AMSL)
19 Glidescope TR 109.90 MHz 10 nm / 19 km 192.20° 183.40° 4.00° 31 ft / 9 m (AMSL)
19 DME TR 109.90 MHz 18 nm / 33 km - - - 36 ft / 11 m (AMSL)

Popular Alternatives